sensor_id;sensor_type;location;lat;lon;timestamp;pressure;altitude;pressure_sealevel;temperature;humidity
76358;BME280;65185;21.060;105.826;2023-06-22T00:01:20;100408.47;;;28.49;95.91
76358;BME280;65185;21.060;105.826;2023-06-22T00:03:48;100410.19;;;28.50;95.96
76358;BME280;65185;21.060;105.826;2023-06-22T00:06:15;100409.19;;;28.51;96.09
76358;BME280;65185;21.060;105.826;2023-06-22T00:08:41;100418.91;;;28.52;95.99
76358;BME280;65185;21.060;105.826;2023-06-22T00:11:08;100421.47;;;28.53;96.15
76358;BME280;65185;21.060;105.826;2023-06-22T00:13:35;100427.66;;;28.54;96.43
76358;BME280;65185;21.060;105.826;2023-06-22T00:16:02;100427.50;;;28.56;96.35
76358;BME280;65185;21.060;105.826;2023-06-22T00:18:29;100433.72;;;28.56;96.25
76358;BME280;65185;21.060;105.826;2023-06-22T00:20:56;100424.00;;;28.55;95.82
76358;BME280;65185;21.060;105.826;2023-06-22T00:23:26;100433.72;;;28.56;96.20
76358;BME280;65185;21.060;105.826;2023-06-22T00:25:53;100427.50;;;28.56;95.95
76358;BME280;65185;21.060;105.826;2023-06-22T00:28:20;100421.19;;;28.57;96.20
76358;BME280;65185;21.060;105.826;2023-06-22T00:30:49;100425.56;;;28.58;95.62
76358;BME280;65185;21.060;105.826;2023-06-22T00:33:16;100419.25;;;28.59;95.79
76358;BME280;65185;21.060;105.826;2023-06-22T00:35:43;100428.97;;;28.60;95.49
76358;BME280;65185;21.060;105.826;2023-06-22T00:38:09;100427.00;;;28.62;95.75
76358;BME280;65185;21.060;105.826;2023-06-22T00:40:36;100420.56;;;28.64;95.76
76358;BME280;65185;21.060;105.826;2023-06-22T00:43:04;100427.47;;;28.67;95.04
76358;BME280;65185;21.060;105.826;2023-06-22T00:45:31;100432.66;;;28.68;95.39
76358;BME280;65185;21.060;105.826;2023-06-22T00:47:59;100432.38;;;28.71;95.03
76358;BME280;65185;21.060;105.826;2023-06-22T00:50:28;100436.78;;;28.72;95.08
76358;BME280;65185;21.060;105.826;2023-06-22T00:53:02;100436.63;;;28.74;94.76
76358;BME280;65185;21.060;105.826;2023-06-22T00:55:36;100442.56;;;28.77;95.18
76358;BME280;65185;21.060;105.826;2023-06-22T00:58:09;100443.41;;;28.78;94.86
76358;BME280;65185;21.060;105.826;2023-06-22T01:00:40;100447.63;;;28.80;95.17
76358;BME280;65185;21.060;105.826;2023-06-22T01:03:07;100443.84;;;28.83;94.83
76358;BME280;65185;21.060;105.826;2023-06-22T01:05:39;100437.44;;;28.85;94.90
76358;BME280;65185;21.060;105.826;2023-06-22T01:08:15;100444.06;;;28.91;95.02
76358;BME280;65185;21.060;105.826;2023-06-22T01:11:01;100441.97;;;28.94;95.06
76358;BME280;65185;21.060;105.826;2023-06-22T01:13:37;100451.53;;;28.97;95.23
76358;BME280;65185;21.060;105.826;2023-06-22T01:16:23;100447.75;;;28.99;95.51
76358;BME280;65185;21.060;105.826;2023-06-22T01:18:52;100452.00;;;29.02;95.35
76358;BME280;65185;21.060;105.826;2023-06-22T01:21:23;100457.06;;;29.05;95.33
76358;BME280;65185;21.060;105.826;2023-06-22T01:29:16;100464.44;;;29.12;94.95
76358;BME280;65185;21.060;105.826;2023-06-22T01:31:44;100454.63;;;29.13;94.97
76358;BME280;65185;21.060;105.826;2023-06-22T01:34:12;100448.16;;;29.15;94.88
76358;BME280;65185;21.060;105.826;2023-06-22T01:36:41;100452.41;;;29.18;95.54
76358;BME280;65185;21.060;105.826;2023-06-22T01:39:08;100452.84;;;29.23;95.20
76358;BME280;65185;21.060;105.826;2023-06-22T01:41:37;100452.59;;;29.26;95.36
76358;BME280;65185;21.060;105.826;2023-06-22T01:44:06;100455.97;;;29.28;95.12
76358;BME280;65185;21.060;105.826;2023-06-22T01:46:34;100445.03;;;29.31;95.24
76358;BME280;65185;21.060;105.826;2023-06-22T01:49:03;100447.44;;;29.34;95.60
76358;BME280;65185;21.060;105.826;2023-06-22T01:51:31;100439.28;;;29.35;95.75
76358;BME280;65185;21.060;105.826;2023-06-22T01:53:58;100439.16;;;29.37;95.45
76358;BME280;65185;21.060;105.826;2023-06-22T01:56:26;100441.44;;;29.41;95.72
76358;BME280;65185;21.060;105.826;2023-06-22T02:01:33;100442.72;;;29.47;95.19
76358;BME280;65185;21.060;105.826;2023-06-22T02:04:22;100434.31;;;29.52;95.35
76358;BME280;65185;21.060;105.826;2023-06-22T02:06:55;100438.28;;;29.57;95.45
76358;BME280;65185;21.060;105.826;2023-06-22T02:09:24;100432.66;;;29.60;94.96
76358;BME280;65185;21.060;105.826;2023-06-22T02:11:54;100444.03;;;29.62;95.06
76358;BME280;65185;21.060;105.826;2023-06-22T02:14:24;100442.91;;;29.65;95.80
76358;BME280;65185;21.060;105.826;2023-06-22T02:16:51;100453.50;;;29.66;95.35
76358;BME280;65185;21.060;105.826;2023-06-22T02:19:23;100448.84;;;29.68;95.37
76358;BME280;65185;21.060;105.826;2023-06-22T02:21:50;100451.00;;;29.74;96.01
76358;BME280;65185;21.060;105.826;2023-06-22T02:24:17;100451.31;;;29.81;96.34
76358;BME280;65185;21.060;105.826;2023-06-22T02:26:44;100447.66;;;29.82;95.62
76358;BME280;65185;21.060;105.826;2023-06-22T02:29:12;100444.03;;;29.83;95.70
76358;BME280;65185;21.060;105.826;2023-06-22T02:31:39;100454.59;;;29.94;96.33
76358;BME280;65185;21.060;105.826;2023-06-22T02:34:05;100451.78;;;29.95;95.48
76358;BME280;65185;21.060;105.826;2023-06-22T02:36:32;100449.81;;;29.97;94.80
76358;BME280;65185;21.060;105.826;2023-06-22T02:38:59;100450.38;;;30.01;94.77
76358;BME280;65185;21.060;105.826;2023-06-22T02:41:37;100450.81;;;30.06;95.48
76358;BME280;65185;21.060;105.826;2023-06-22T02:44:04;100441.81;;;30.07;94.68
76358;BME280;65185;21.060;105.826;2023-06-22T02:46:31;100450.41;;;30.10;95.00
76358;BME280;65185;21.060;105.826;2023-06-22T02:48:58;100439.72;;;30.10;94.60
76358;BME280;65185;21.060;105.826;2023-06-22T02:51:24;100443.09;;;30.12;94.49
76358;BME280;65185;21.060;105.826;2023-06-22T02:53:51;100438.03;;;30.19;94.62
76358;BME280;65185;21.060;105.826;2023-06-22T02:56:22;100441.28;;;30.22;94.29
76358;BME280;65185;21.060;105.826;2023-06-22T02:58:54;100442.72;;;30.26;94.39
76358;BME280;65185;21.060;105.826;2023-06-22T03:01:27;100436.81;;;30.32;93.59
76358;BME280;65185;21.060;105.826;2023-06-22T03:03:56;100435.28;;;30.39;93.27
76358;BME280;65185;21.060;105.826;2023-06-22T03:06:24;100430.06;;;30.48;93.45
76358;BME280;65185;21.060;105.826;2023-06-22T03:09:00;100424.44;;;30.51;92.74
76358;BME280;65185;21.060;105.826;2023-06-22T03:11:29;100424.16;;;30.54;92.33
76358;BME280;65185;21.060;105.826;2023-06-22T03:13:57;100427.38;;;30.57;90.45
76358;BME280;65185;21.060;105.826;2023-06-22T03:16:24;100423.03;;;30.66;90.79
76358;BME280;65185;21.060;105.826;2023-06-22T03:18:51;100428.25;;;30.67;90.14
76358;BME280;65185;21.060;105.826;2023-06-22T03:21:21;100422.88;;;30.67;88.35
76358;BME280;65185;21.060;105.826;2023-06-22T03:23:48;100425.13;;;30.72;87.35
76358;BME280;65185;21.060;105.826;2023-06-22T03:26:18;100431.03;;;30.75;86.86
76358;BME280;65185;21.060;105.826;2023-06-22T03:28:46;100422.72;;;30.78;87.20
76358;BME280;65185;21.060;105.826;2023-06-22T03:31:12;100416.81;;;30.75;86.74
76358;BME280;65185;21.060;105.826;2023-06-22T03:33:39;100421.63;;;30.71;86.89
76358;BME280;65185;21.060;105.826;2023-06-22T03:36:06;100417.78;;;30.74;87.61
76358;BME280;65185;21.060;105.826;2023-06-22T03:38:33;100425.69;;;30.75;89.14
76358;BME280;65185;21.060;105.826;2023-06-22T03:41:00;100421.31;;;30.74;88.71
76358;BME280;65185;21.060;105.826;2023-06-22T03:43:26;100424.56;;;30.78;88.58
76358;BME280;65185;21.060;105.826;2023-06-22T03:45:53;100423.56;;;30.79;88.81
76358;BME280;65185;21.060;105.826;2023-06-22T03:48:20;100431.72;;;30.77;88.30
76358;BME280;65185;21.060;105.826;2023-06-22T03:50:47;100427.53;;;30.84;89.40
76358;BME280;65185;21.060;105.826;2023-06-22T03:53:13;100426.69;;;30.84;88.36
76358;BME280;65185;21.060;105.826;2023-06-22T03:55:51;100426.94;;;30.81;89.86
76358;BME280;65185;21.060;105.826;2023-06-22T03:58:19;100437.63;;;30.81;88.66
76358;BME280;65185;21.060;105.826;2023-06-22T04:00:50;100431.06;;;30.85;88.44
76358;BME280;65185;21.060;105.826;2023-06-22T04:03:17;100430.78;;;30.88;89.14
76358;BME280;65185;21.060;105.826;2023-06-22T04:05:47;100436.25;;;30.86;88.83
76358;BME280;65185;21.060;105.826;2023-06-22T04:08:14;100444.44;;;30.85;88.99
76358;BME280;65185;21.060;105.826;2023-06-22T04:10:42;100440.31;;;30.81;89.32
76358;BME280;65185;21.060;105.826;2023-06-22T04:13:08;100443.59;;;30.75;88.85
76358;BME280;65185;21.060;105.826;2023-06-22T04:15:35;100442.88;;;30.73;89.30
76358;BME280;65185;21.060;105.826;2023-06-22T04:18:02;100445.97;;;30.78;89.87
76358;BME280;65185;21.060;105.826;2023-06-22T04:20:29;100438.78;;;30.78;89.22
76358;BME280;65185;21.060;105.826;2023-06-22T04:22:55;100438.63;;;30.80;88.44
76358;BME280;65185;21.060;105.826;2023-06-22T04:25:22;100424.84;;;30.84;88.22
76358;BME280;65185;21.060;105.826;2023-06-22T04:27:52;100428.78;;;30.90;88.03
76358;BME280;65185;21.060;105.826;2023-06-22T04:30:22;100424.13;;;30.92;87.39
76358;BME280;65185;21.060;105.826;2023-06-22T04:32:49;100420.63;;;30.91;85.58
76358;BME280;65185;21.060;105.826;2023-06-22T04:35:22;100422.16;;;30.94;84.00
76358;BME280;65185;21.060;105.826;2023-06-22T04:37:55;100423.00;;;30.94;81.39
76358;BME280;65185;21.060;105.826;2023-06-22T04:40:23;100432.00;;;30.93;80.78
76358;BME280;65185;21.060;105.826;2023-06-22T04:42:50;100430.34;;;30.92;79.87
76358;BME280;65185;21.060;105.826;2023-06-22T04:45:20;100437.09;;;30.96;80.43
76358;BME280;65185;21.060;105.826;2023-06-22T04:47:47;100432.16;;;31.01;80.09
76358;BME280;65185;21.060;105.826;2023-06-22T04:50:14;100426.50;;;31.04;80.68
76358;BME280;65185;21.060;105.826;2023-06-22T04:52:41;100432.00;;;31.03;80.97
76358;BME280;65185;21.060;105.826;2023-06-22T04:55:08;100428.06;;;31.07;81.59
76358;BME280;65185;21.060;105.826;2023-06-22T04:57:35;100425.94;;;31.10;83.42
76358;BME280;65185;21.060;105.826;2023-06-22T05:00:05;100428.19;;;31.15;84.02
76358;BME280;65185;21.060;105.826;2023-06-22T05:02:41;100425.66;;;31.13;84.49
76358;BME280;65185;21.060;105.826;2023-06-22T05:05:08;100422.69;;;31.16;86.12
76358;BME280;65185;21.060;105.826;2023-06-22T05:07:44;100419.28;;;31.14;86.23
76358;BME280;65185;21.060;105.826;2023-06-22T05:10:11;100413.78;;;31.16;86.37
76358;BME280;65185;21.060;105.826;2023-06-22T05:12:39;100407.16;;;31.20;87.03
76358;BME280;65185;21.060;105.826;2023-06-22T05:15:08;100402.50;;;31.22;86.45
76358;BME280;65185;21.060;105.826;2023-06-22T05:17:36;100399.38;;;31.26;86.31
76358;BME280;65185;21.060;105.826;2023-06-22T05:20:07;100387.53;;;31.29;86.29
76358;BME280;65185;21.060;105.826;2023-06-22T05:22:34;100386.97;;;31.35;86.19
76358;BME280;65185;21.060;105.826;2023-06-22T05:25:01;100382.19;;;31.29;85.44
76358;BME280;65185;21.060;105.826;2023-06-22T05:27:28;100382.88;;;31.31;84.75
76358;BME280;65185;21.060;105.826;2023-06-22T05:29:54;100382.66;;;31.24;84.79
76358;BME280;65185;21.060;105.826;2023-06-22T05:32:21;100370.06;;;31.25;85.33
76358;BME280;65185;21.060;105.826;2023-06-22T05:34:48;100368.66;;;31.30;85.44
76358;BME280;65185;21.060;105.826;2023-06-22T05:37:15;100366.81;;;31.31;85.10
76358;BME280;65185;21.060;105.826;2023-06-22T05:39:41;100361.88;;;31.36;85.02
76358;BME280;65185;21.060;105.826;2023-06-22T05:42:08;100359.63;;;31.41;83.57
76358;BME280;65185;21.060;105.826;2023-06-22T05:44:35;100360.56;;;31.50;82.73
76358;BME280;65185;21.060;105.826;2023-06-22T05:47:03;100350.00;;;31.48;81.30
76358;BME280;65185;21.060;105.826;2023-06-22T05:49:30;100349.00;;;31.49;80.44
76358;BME280;65185;21.060;105.826;2023-06-22T05:51:59;100353.22;;;31.52;79.77
76358;BME280;65185;21.060;105.826;2023-06-22T05:54:27;100341.34;;;31.54;79.04
76358;BME280;65185;21.060;105.826;2023-06-22T05:56:55;100341.34;;;31.54;78.00
76358;BME280;65185;21.060;105.826;2023-06-22T05:59:21;100332.34;;;31.55;78.03
76358;BME280;65185;21.060;105.826;2023-06-22T06:01:54;100321.47;;;31.57;78.02
76358;BME280;65185;21.060;105.826;2023-06-22T06:04:21;100317.66;;;31.59;78.60
76358;BME280;65185;21.060;105.826;2023-06-22T06:06:48;100328.38;;;31.59;76.54
76358;BME280;65185;21.060;105.826;2023-06-22T06:09:15;100314.13;;;31.59;75.21
76358;BME280;65185;21.060;105.826;2023-06-22T06:11:42;100312.84;;;31.63;74.17
76358;BME280;65185;21.060;105.826;2023-06-22T06:14:12;100301.81;;;31.66;71.76
76358;BME280;65185;21.060;105.826;2023-06-22T06:16:43;100299.06;;;31.75;72.42
76358;BME280;65185;21.060;105.826;2023-06-22T06:19:09;100297.78;;;31.79;71.38
76358;BME280;65185;21.060;105.826;2023-06-22T06:21:36;100293.47;;;31.86;72.21
76358;BME280;65185;21.060;105.826;2023-06-22T06:24:03;100292.06;;;31.92;72.65
76358;BME280;65185;21.060;105.826;2023-06-22T06:26:30;100285.56;;;31.94;73.05
76358;BME280;65185;21.060;105.826;2023-06-22T06:29:00;100285.00;;;31.91;72.38
76358;BME280;65185;21.060;105.826;2023-06-22T06:31:28;100287.53;;;31.92;71.65
76358;BME280;65185;21.060;105.826;2023-06-22T06:33:55;100278.66;;;31.92;71.77
76358;BME280;65185;21.060;105.826;2023-06-22T06:36:22;100267.78;;;31.93;71.92
76358;BME280;65185;21.060;105.826;2023-06-22T06:38:49;100272.97;;;31.95;72.02
76358;BME280;65185;21.060;105.826;2023-06-22T06:41:16;100264.66;;;31.98;76.47
76358;BME280;65185;21.060;105.826;2023-06-22T06:43:43;100260.25;;;31.97;76.55
76358;BME280;65185;21.060;105.826;2023-06-22T06:46:10;100252.72;;;31.92;77.29
76358;BME280;65185;21.060;105.826;2023-06-22T06:48:36;100258.06;;;31.92;79.02
76358;BME280;65185;21.060;105.826;2023-06-22T06:51:03;100253.00;;;31.89;78.35
76358;BME280;65185;21.060;105.826;2023-06-22T06:53:30;100249.47;;;31.89;79.48
76358;BME280;65185;21.060;105.826;2023-06-22T06:55:57;100239.19;;;31.84;79.09
76358;BME280;65185;21.060;105.826;2023-06-22T06:58:24;100245.00;;;31.80;77.60
76358;BME280;65185;21.060;105.826;2023-06-22T07:00:50;100229.56;;;31.74;78.53
76358;BME280;65185;21.060;105.826;2023-06-22T07:03:17;100233.38;;;31.71;78.98
76358;BME280;65185;21.060;105.826;2023-06-22T07:05:44;100230.16;;;31.68;78.57
76358;BME280;65185;21.060;105.826;2023-06-22T07:08:11;100218.44;;;31.69;79.04
76358;BME280;65185;21.060;105.826;2023-06-22T07:10:37;100214.09;;;31.68;78.75
76358;BME280;65185;21.060;105.826;2023-06-22T07:13:04;100212.41;;;31.67;79.46
76358;BME280;65185;21.060;105.826;2023-06-22T07:15:31;100211.56;;;31.66;79.17
76358;BME280;65185;21.060;105.826;2023-06-22T07:17:58;100208.38;;;31.63;79.42
76358;BME280;65185;21.060;105.826;2023-06-22T07:20:24;100211.72;;;31.65;79.58
76358;BME280;65185;21.060;105.826;2023-06-22T07:22:51;100206.22;;;31.66;78.60
76358;BME280;65185;21.060;105.826;2023-06-22T07:25:19;100208.91;;;31.66;77.70
76358;BME280;65185;21.060;105.826;2023-06-22T07:27:58;100203.28;;;31.60;77.11
76358;BME280;65185;21.060;105.826;2023-06-22T07:30:25;100203.78;;;31.55;77.51
76358;BME280;65185;21.060;105.826;2023-06-22T07:32:53;100194.88;;;31.55;77.93
76358;BME280;65185;21.060;105.826;2023-06-22T07:35:23;100194.88;;;31.55;77.49
76358;BME280;65185;21.060;105.826;2023-06-22T07:37:54;100191.06;;;31.57;75.62
76358;BME280;65185;21.060;105.826;2023-06-22T07:40:21;100185.06;;;31.63;75.27
76358;BME280;65185;21.060;105.826;2023-06-22T07:42:48;100183.56;;;31.61;75.48
76358;BME280;65185;21.060;105.826;2023-06-22T07:45:17;100190.75;;;31.60;76.14
76358;BME280;65185;21.060;105.826;2023-06-22T07:47:44;100187.38;;;31.58;75.25
76358;BME280;65185;21.060;105.826;2023-06-22T07:50:11;100181.97;;;31.50;75.34
76358;BME280;65185;21.060;105.826;2023-06-22T07:52:41;100176.53;;;31.42;75.62
76358;BME280;65185;21.060;105.826;2023-06-22T07:55:08;100170.06;;;31.35;75.23
76358;BME280;65185;21.060;105.826;2023-06-22T07:57:38;100164.47;;;31.28;75.06
76358;BME280;65185;21.060;105.826;2023-06-22T08:00:08;100168.69;;;31.31;75.33
76358;BME280;65185;21.060;105.826;2023-06-22T08:02:44;100158.22;;;31.37;76.17
76358;BME280;65185;21.060;105.826;2023-06-22T08:05:10;100154.56;;;31.38;76.54
76358;BME280;65185;21.060;105.826;2023-06-22T08:07:38;100152.59;;;31.41;75.70
76358;BME280;65185;21.060;105.826;2023-06-22T08:10:06;100152.88;;;31.37;75.26
76358;BME280;65185;21.060;105.826;2023-06-22T08:12:32;100151.72;;;31.40;75.72
76358;BME280;65185;21.060;105.826;2023-06-22T08:14:59;100150.75;;;31.41;76.59
76358;BME280;65185;21.060;105.826;2023-06-22T08:17:26;100143.53;;;31.42;75.66
76358;BME280;65185;21.060;105.826;2023-06-22T08:19:53;100148.91;;;31.42;76.06
76358;BME280;65185;21.060;105.826;2023-06-22T08:22:20;100147.91;;;31.43;75.21
76358;BME280;65185;21.060;105.826;2023-06-22T08:24:46;100149.38;;;31.37;75.90
76358;BME280;65185;21.060;105.826;2023-06-22T08:27:14;100146.13;;;31.33;75.44
76358;BME280;65185;21.060;105.826;2023-06-22T08:29:47;100141.91;;;31.31;75.61
76358;BME280;65185;21.060;105.826;2023-06-22T08:32:20;100134.41;;;31.34;75.20
76358;BME280;65185;21.060;105.826;2023-06-22T08:34:47;100132.50;;;31.27;75.69
76358;BME280;65185;21.060;105.826;2023-06-22T08:37:14;100131.81;;;31.25;75.28
76358;BME280;65185;21.060;105.826;2023-06-22T08:39:41;100136.56;;;31.31;74.79
76358;BME280;65185;21.060;105.826;2023-06-22T08:42:08;100127.09;;;31.36;74.90
76358;BME280;65185;21.060;105.826;2023-06-22T08:44:38;100124.78;;;31.42;74.76
76358;BME280;65185;21.060;105.826;2023-06-22T08:47:05;100130.38;;;31.48;75.10
76358;BME280;65185;21.060;105.826;2023-06-22T08:49:32;100131.09;;;31.50;75.89
76358;BME280;65185;21.060;105.826;2023-06-22T08:51:59;100120.50;;;31.49;74.89
76358;BME280;65185;21.060;105.826;2023-06-22T08:54:26;100121.66;;;31.46;74.52
76358;BME280;65185;21.060;105.826;2023-06-22T08:56:54;100115.94;;;31.41;73.75
76358;BME280;65185;21.060;105.826;2023-06-22T08:59:33;100116.59;;;31.43;74.47
76358;BME280;65185;21.060;105.826;2023-06-22T09:02:01;100111.25;;;31.43;74.42
76358;BME280;65185;21.060;105.826;2023-06-22T09:04:27;100116.00;;;31.49;74.80
76358;BME280;65185;21.060;105.826;2023-06-22T09:06:55;100113.31;;;31.49;74.35
76358;BME280;65185;21.060;105.826;2023-06-22T09:09:24;100118.91;;;31.56;73.56
76358;BME280;65185;21.060;105.826;2023-06-22T09:11:52;100119.28;;;31.61;72.10
76358;BME280;65185;21.060;105.826;2023-06-22T09:14:19;100121.34;;;31.67;71.23
76358;BME280;65185;21.060;105.826;2023-06-22T09:16:49;100122.00;;;31.69;70.79
76358;BME280;65185;21.060;105.826;2023-06-22T09:19:20;100119.88;;;31.72;70.83
76358;BME280;65185;21.060;105.826;2023-06-22T09:21:47;100126.06;;;31.73;71.06
76358;BME280;65185;21.060;105.826;2023-06-22T09:24:18;100125.00;;;31.66;72.09
76358;BME280;65185;21.060;105.826;2023-06-22T09:26:45;100128.28;;;31.60;72.57
76358;BME280;65185;21.060;105.826;2023-06-22T09:29:13;100134.13;;;31.55;73.90
76358;BME280;65185;21.060;105.826;2023-06-22T09:31:40;100134.03;;;31.47;74.19
76358;BME280;65185;21.060;105.826;2023-06-22T09:34:07;100137.38;;;31.41;74.78
76358;BME280;65185;21.060;105.826;2023-06-22T09:36:34;100136.97;;;31.36;76.01
76358;BME280;65185;21.060;105.826;2023-06-22T09:39:01;100132.34;;;31.28;76.78
76358;BME280;65185;21.060;105.826;2023-06-22T09:41:32;100126.78;;;31.22;77.86
76358;BME280;65185;21.060;105.826;2023-06-22T09:43:58;100128.06;;;31.18;78.41
76358;BME280;65185;21.060;105.826;2023-06-22T09:46:25;100123.72;;;31.17;77.63
76358;BME280;65185;21.060;105.826;2023-06-22T09:48:52;100128.38;;;31.15;77.38
76358;BME280;65185;21.060;105.826;2023-06-22T09:51:19;100128.06;;;31.18;77.90
76358;BME280;65185;21.060;105.826;2023-06-22T09:53:47;100130.03;;;31.16;78.30
76358;BME280;65185;21.060;105.826;2023-06-22T09:56:14;100122.88;;;31.16;78.13
76358;BME280;65185;21.060;105.826;2023-06-22T09:58:45;100116.97;;;31.13;78.34
76358;BME280;65185;21.060;105.826;2023-06-22T10:01:13;100113.06;;;31.07;78.41
76358;BME280;65185;21.060;105.826;2023-06-22T10:03:46;100119.88;;;31.02;78.71
76358;BME280;65185;21.060;105.826;2023-06-22T10:06:13;100123.16;;;30.96;78.91
76358;BME280;65185;21.060;105.826;2023-06-22T10:08:39;100125.28;;;30.92;78.82
76358;BME280;65185;21.060;105.826;2023-06-22T10:11:06;100119.94;;;30.92;78.91
76358;BME280;65185;21.060;105.826;2023-06-22T10:13:33;100125.59;;;30.89;78.81
76358;BME280;65185;21.060;105.826;2023-06-22T10:16:00;100119.72;;;30.86;78.87
76358;BME280;65185;21.060;105.826;2023-06-22T10:18:27;100122.38;;;30.86;79.53
76358;BME280;65185;21.060;105.826;2023-06-22T10:20:53;100124.28;;;30.93;78.79
76358;BME280;65185;21.060;105.826;2023-06-22T10:23:20;100125.59;;;30.89;78.59
76358;BME280;65185;21.060;105.826;2023-06-22T10:25:47;100122.50;;;30.84;78.25
76358;BME280;65185;21.060;105.826;2023-06-22T10:28:14;100129.16;;;30.80;78.65
76358;BME280;65185;21.060;105.826;2023-06-22T10:30:42;100126.34;;;30.82;79.18
76358;BME280;65185;21.060;105.826;2023-06-22T10:33:12;100129.03;;;30.82;79.25
76358;BME280;65185;21.060;105.826;2023-06-22T10:35:39;100133.66;;;30.80;78.33
76358;BME280;65185;21.060;105.826;2023-06-22T10:38:06;100136.31;;;30.80;78.36
76358;BME280;65185;21.060;105.826;2023-06-22T10:40:34;100126.22;;;30.74;78.69
76358;BME280;65185;21.060;105.826;2023-06-22T10:43:01;100128.19;;;30.72;78.55
76358;BME280;65185;21.060;105.826;2023-06-22T10:45:27;100120.59;;;30.77;78.52
76358;BME280;65185;21.060;105.826;2023-06-22T10:47:54;100114.97;;;30.70;78.68
76358;BME280;65185;21.060;105.826;2023-06-22T10:50:21;100119.03;;;30.74;79.18
76358;BME280;65185;21.060;105.826;2023-06-22T10:52:50;100119.47;;;30.70;79.46
76358;BME280;65185;21.060;105.826;2023-06-22T10:55:16;100126.81;;;30.68;78.85
76358;BME280;65185;21.060;105.826;2023-06-22T10:57:43;100117.50;;;30.72;78.86
76358;BME280;65185;21.060;105.826;2023-06-22T11:00:14;100123.00;;;30.70;78.25
76358;BME280;65185;21.060;105.826;2023-06-22T11:02:41;100118.13;;;30.66;77.77
76358;BME280;65185;21.060;105.826;2023-06-22T11:05:08;100119.47;;;30.70;77.58
76358;BME280;65185;21.060;105.826;2023-06-22T11:07:36;100122.84;;;30.72;77.67
76358;BME280;65185;21.060;105.826;2023-06-22T11:10:03;100124.44;;;30.65;77.96
76358;BME280;65185;21.060;105.826;2023-06-22T11:12:30;100126.88;;;30.58;78.28
76358;BME280;65185;21.060;105.826;2023-06-22T11:14:57;100140.09;;;30.60;77.76
76358;BME280;65185;21.060;105.826;2023-06-22T11:17:23;100139.19;;;30.69;77.40
76358;BME280;65185;21.060;105.826;2023-06-22T11:19:50;100140.19;;;30.68;77.75
76358;BME280;65185;21.060;105.826;2023-06-22T11:22:17;100129.63;;;30.66;77.80
76358;BME280;65185;21.060;105.826;2023-06-22T11:24:44;100146.22;;;30.70;77.77
76358;BME280;65185;21.060;105.826;2023-06-22T11:27:11;100135.41;;;30.71;77.42
76358;BME280;65185;21.060;105.826;2023-06-22T11:29:37;100138.63;;;30.75;76.69
76358;BME280;65185;21.060;105.826;2023-06-22T11:32:06;100148.16;;;30.77;76.90
76358;BME280;65185;21.060;105.826;2023-06-22T11:34:34;100150.28;;;30.83;77.11
76358;BME280;65185;21.060;105.826;2023-06-22T11:37:01;100153.81;;;30.84;76.69
76358;BME280;65185;21.060;105.826;2023-06-22T11:39:28;100153.81;;;30.84;76.56
76358;BME280;65185;21.060;105.826;2023-06-22T11:41:54;100146.03;;;30.81;76.44
76358;BME280;65185;21.060;105.826;2023-06-22T11:44:21;100154.94;;;30.81;76.11
76358;BME280;65185;21.060;105.826;2023-06-22T11:46:48;100165.47;;;30.83;75.81
76358;BME280;65185;21.060;105.826;2023-06-22T11:49:15;100165.91;;;30.78;75.79
76358;BME280;65185;21.060;105.826;2023-06-22T11:51:41;100172.22;;;30.77;76.13
76358;BME280;65185;21.060;105.826;2023-06-22T11:54:08;100171.84;;;30.72;76.22
76358;BME280;65185;21.060;105.826;2023-06-22T11:56:35;100178.19;;;30.71;76.16
76358;BME280;65185;21.060;105.826;2023-06-22T11:59:01;100175.66;;;30.70;77.07
76358;BME280;65185;21.060;105.826;2023-06-22T12:01:28;100174.28;;;30.66;77.21
76358;BME280;65185;21.060;105.826;2023-06-22T12:03:55;100171.72;;;30.64;77.20
76358;BME280;65185;21.060;105.826;2023-06-22T12:06:22;100180.91;;;30.62;77.52
76358;BME280;65185;21.060;105.826;2023-06-22T12:08:48;100174.88;;;30.60;77.98
76358;BME280;65185;21.060;105.826;2023-06-22T12:11:15;100176.84;;;30.58;77.70
76358;BME280;65185;21.060;105.826;2023-06-22T12:13:42;100181.66;;;30.54;77.91
76358;BME280;65185;21.060;105.826;2023-06-22T12:16:10;100189.66;;;30.54;77.81
76358;BME280;65185;21.060;105.826;2023-06-22T12:18:38;100188.13;;;30.52;77.45
76358;BME280;65185;21.060;105.826;2023-06-22T12:21:05;100196.28;;;30.50;77.57
76358;BME280;65185;21.060;105.826;2023-06-22T12:23:31;100197.28;;;30.49;77.81
76358;BME280;65185;21.060;105.826;2023-06-22T12:25:58;100197.28;;;30.49;77.43
76358;BME280;65185;21.060;105.826;2023-06-22T12:28:26;100207.13;;;30.49;77.70
76358;BME280;65185;21.060;105.826;2023-06-22T12:30:52;100216.84;;;30.50;77.64
76358;BME280;65185;21.060;105.826;2023-06-22T12:33:20;100216.69;;;30.51;77.57
76358;BME280;65185;21.060;105.826;2023-06-22T12:35:46;100221.22;;;30.51;77.22
76358;BME280;65185;21.060;105.826;2023-06-22T12:38:15;100226.56;;;30.51;77.44
76358;BME280;65185;21.060;105.826;2023-06-22T12:40:44;100230.34;;;30.48;77.67
76358;BME280;65185;21.060;105.826;2023-06-22T12:43:13;100236.72;;;30.47;77.53